createdAt,value
2019-05-17T00:00:30.663Z,0.40
2019-05-17T00:01:31.374Z,0.50
2019-05-17T00:02:30.640Z,0.50
2019-05-17T00:03:30.641Z,0.40
2019-05-17T00:04:30.624Z,0.50
2019-05-17T00:05:30.607Z,0.40
2019-05-17T00:06:31.375Z,0.50
2019-05-17T00:07:30.593Z,0.50
2019-05-17T00:08:34.569Z,0.60
2019-05-17T00:09:30.566Z,0.50
2019-05-17T00:10:30.552Z,0.40
2019-05-17T00:11:30.539Z,0.40
2019-05-17T00:12:30.531Z,0.50
2019-05-17T00:13:30.536Z,0.30
2019-05-17T00:14:31.373Z,0.50
2019-05-17T00:15:30.497Z,0.40
2019-05-17T00:16:30.486Z,0.50
2019-05-17T00:17:30.475Z,0.40
2019-05-17T00:18:30.885Z,0.50
2019-05-17T00:19:30.452Z,0.60
2019-05-17T00:20:30.439Z,0.50
2019-05-17T00:21:31.374Z,0.60
2019-05-17T00:22:30.424Z,0.50
2019-05-17T00:23:30.426Z,0.50
2019-05-17T00:24:31.376Z,0.50
2019-05-17T00:25:30.386Z,0.50
2019-05-17T00:26:30.423Z,0.60
2019-05-17T00:27:30.363Z,0.40
2019-05-17T00:28:30.365Z,0.50
2019-05-17T00:29:30.343Z,0.40
2019-05-17T00:30:30.329Z,0.50
2019-05-17T00:31:30.326Z,0.50
2019-05-17T00:32:30.329Z,0.50
2019-05-17T00:33:30.388Z,0.50
2019-05-17T00:34:30.290Z,0.30
2019-05-17T00:35:30.276Z,0.40
2019-05-17T00:36:30.268Z,0.40
2019-05-17T00:37:30.270Z,0.70
2019-05-17T00:38:30.385Z,0.60
2019-05-17T00:39:30.234Z,0.50
2019-05-17T00:40:30.222Z,0.40
2019-05-17T00:41:30.213Z,0.40
2019-05-17T00:42:30.214Z,0.50
2019-05-17T00:43:30.392Z,0.40
2019-05-17T00:44:30.190Z,0.50
2019-05-17T00:45:30.886Z,0.50
2019-05-17T00:46:30.160Z,0.60
2019-05-17T00:47:30.164Z,0.50
2019-05-17T00:48:30.157Z,0.40
2019-05-17T00:49:30.124Z,0.40
2019-05-17T00:50:30.879Z,0.50
2019-05-17T00:51:30.109Z,0.40
2019-05-17T00:52:30.102Z,0.60
2019-05-17T00:53:30.878Z,0.40
2019-05-17T00:54:30.076Z,0.60
2019-05-17T00:55:30.061Z,0.60
2019-05-17T00:56:30.048Z,0.40
2019-05-17T00:57:30.047Z,0.30
2019-05-17T00:58:30.021Z,0.40
2019-05-17T00:59:30.029Z,0.50
2019-05-17T01:00:30.024Z,0.40
2019-05-17T01:01:29.994Z,0.50
2019-05-17T01:02:30.879Z,0.40
2019-05-17T01:03:29.970Z,0.50
2019-05-17T01:04:29.967Z,0.60
2019-05-17T01:05:29.951Z,0.40
2019-05-17T01:06:29.938Z,0.40
2019-05-17T01:07:30.880Z,0.50
2019-05-17T01:08:30.884Z,0.50
2019-05-17T01:09:29.915Z,0.50
2019-05-17T01:10:29.894Z,0.40
2019-05-17T01:11:29.883Z,0.40
2019-05-17T01:12:29.891Z,0.50
2019-05-17T01:13:29.862Z,0.40
2019-05-17T01:14:29.867Z,0.40
2019-05-17T01:15:29.838Z,0.50
2019-05-17T01:16:30.378Z,0.30
2019-05-17T01:17:29.827Z,0.50
2019-05-17T01:18:30.380Z,0.40
2019-05-17T01:19:29.811Z,0.50
2019-05-17T01:20:29.790Z,0.40
2019-05-17T01:21:29.777Z,0.60
2019-05-17T01:22:30.379Z,0.50
2019-05-17T01:23:29.760Z,0.60
2019-05-17T01:24:29.759Z,0.40
2019-05-17T01:25:29.736Z,0.40
2019-05-17T01:26:29.724Z,0.50
2019-05-17T01:27:30.378Z,0.60
2019-05-17T01:28:29.703Z,0.40
2019-05-17T01:29:29.695Z,0.40
2019-05-17T01:30:29.894Z,0.40
2019-05-17T01:31:29.669Z,0.50
2019-05-17T01:32:29.662Z,0.30
2019-05-17T01:33:29.650Z,0.40
2019-05-17T01:34:30.381Z,0.50
2019-05-17T01:35:29.658Z,0.30
2019-05-17T01:36:29.620Z,0.40
2019-05-17T01:37:29.635Z,0.40
2019-05-17T01:38:29.596Z,0.40
2019-05-17T01:39:29.586Z,0.40
2019-05-17T01:40:29.896Z,0.40
2019-05-17T01:41:30.381Z,0.40
2019-05-17T01:42:29.567Z,0.50
2019-05-17T01:43:29.541Z,0.40
2019-05-17T01:44:29.531Z,0.40
2019-05-17T01:45:29.531Z,0.50
2019-05-17T01:46:29.509Z,0.70
2019-05-17T01:47:29.510Z,0.50
2019-05-17T01:48:29.489Z,0.60
2019-05-17T01:49:29.477Z,0.50
2019-05-17T01:50:29.493Z,0.40
2019-05-17T01:51:29.458Z,0.50
2019-05-17T01:52:29.459Z,0.40
2019-05-17T01:53:29.445Z,0.40
2019-05-17T01:54:29.426Z,0.50
2019-05-17T01:55:29.422Z,0.30
2019-05-17T01:56:29.406Z,0.50
2019-05-17T01:57:30.398Z,0.50
2019-05-17T01:58:29.383Z,0.50
2019-05-17T01:59:29.882Z,0.40
2019-05-17T02:00:29.372Z,0.50
2019-05-17T02:01:29.365Z,0.50
2019-05-17T02:02:29.358Z,0.40
2019-05-17T02:03:29.332Z,0.60
2019-05-17T02:04:29.884Z,0.40
2019-05-17T02:05:29.309Z,0.40
2019-05-17T02:06:29.323Z,0.40
2019-05-17T02:07:29.305Z,0.50
2019-05-17T02:08:29.276Z,0.40
2019-05-17T02:09:37.199Z,0.60
2019-05-17T02:10:29.263Z,0.40
2019-05-17T02:11:29.254Z,0.60
2019-05-17T02:12:29.237Z,0.60
2019-05-17T02:13:29.222Z,0.40
2019-05-17T02:14:29.882Z,0.40
2019-05-17T02:15:29.206Z,0.60
2019-05-17T02:16:29.220Z,0.40
2019-05-17T02:17:29.888Z,0.50
2019-05-17T02:18:29.173Z,0.30
2019-05-17T02:19:29.160Z,0.60
2019-05-17T02:20:29.148Z,0.60
2019-05-17T02:21:29.157Z,0.40
2019-05-17T02:22:29.129Z,0.40
2019-05-17T02:23:29.116Z,0.50
2019-05-17T02:24:29.107Z,0.50
2019-05-17T02:25:29.093Z,0.40
2019-05-17T02:26:29.109Z,0.50
2019-05-17T02:27:37.541Z,0.50
2019-05-17T02:28:29.074Z,0.50
2019-05-17T02:29:29.049Z,0.40
2019-05-17T02:30:29.041Z,0.60
2019-05-17T02:31:32.655Z,0.50
2019-05-17T02:32:29.016Z,0.40
2019-05-17T02:33:29.011Z,0.40
2019-05-17T02:34:28.998Z,0.60
2019-05-17T02:35:28.985Z,0.50
2019-05-17T02:36:29.005Z,0.40
2019-05-17T02:37:28.964Z,0.40
2019-05-17T02:38:28.964Z,0.50
2019-05-17T02:39:32.495Z,0.30
2019-05-17T02:40:28.932Z,0.50
2019-05-17T02:41:28.931Z,0.50
2019-05-17T02:42:28.910Z,0.40
2019-05-17T02:43:28.915Z,0.20
2019-05-17T02:44:33.150Z,0.50
2019-05-17T02:45:28.878Z,0.30
2019-05-17T02:46:28.876Z,0.50
2019-05-17T02:47:28.855Z,0.80
2019-05-17T02:48:28.849Z,0.50
2019-05-17T02:49:28.835Z,0.40
2019-05-17T02:50:28.822Z,0.50
2019-05-17T02:51:28.912Z,0.40
2019-05-17T02:52:28.801Z,0.30
2019-05-17T02:53:28.808Z,0.40
2019-05-17T02:54:28.785Z,0.50
2019-05-17T02:55:28.787Z,0.40
2019-05-17T02:56:28.768Z,0.40
2019-05-17T02:57:28.757Z,0.40
2019-05-17T02:58:28.752Z,0.60
2019-05-17T02:59:32.794Z,0.40
2019-05-17T03:00:28.727Z,0.40
2019-05-17T03:01:32.835Z,0.40
2019-05-17T03:02:28.726Z,0.50
2019-05-17T03:03:28.694Z,0.40
2019-05-17T03:04:28.673Z,0.40
2019-05-17T03:05:28.665Z,0.40
2019-05-17T03:06:28.656Z,0.50
2019-05-17T03:07:28.918Z,0.60
2019-05-17T03:08:28.649Z,0.50
2019-05-17T03:09:28.619Z,0.50
2019-05-17T03:10:29.170Z,0.40
2019-05-17T03:11:28.604Z,0.40
2019-05-17T03:12:28.596Z,0.50
2019-05-17T03:13:28.595Z,0.40
2019-05-17T03:14:32.536Z,0.40
2019-05-17T03:15:28.562Z,0.50
2019-05-17T03:16:28.545Z,0.50
2019-05-17T03:17:28.543Z,0.40
2019-05-17T03:18:28.524Z,0.40
2019-05-17T03:19:28.511Z,0.50
2019-05-17T03:20:28.499Z,0.40
2019-05-17T03:21:28.487Z,0.50
2019-05-17T03:22:28.492Z,0.50
2019-05-17T03:23:28.472Z,0.40
2019-05-17T03:24:28.463Z,0.50
2019-05-17T03:25:28.450Z,0.50
2019-05-17T03:26:28.433Z,0.40
2019-05-17T03:27:28.439Z,0.60
2019-05-17T03:28:28.413Z,0.50
2019-05-17T03:29:28.406Z,0.50
2019-05-17T03:30:28.406Z,0.30
2019-05-17T03:31:34.297Z,0.40
2019-05-17T03:32:28.402Z,0.30
2019-05-17T03:33:28.361Z,0.50
2019-05-17T03:34:28.374Z,0.40
2019-05-17T03:35:28.353Z,0.40
2019-05-17T03:36:28.330Z,0.30
2019-05-17T03:37:36.493Z,0.40
2019-05-17T03:38:28.317Z,0.50
2019-05-17T03:39:28.296Z,0.50
2019-05-17T03:40:58.366Z,0.40
2019-05-17T03:41:29.467Z,0.30
2019-05-17T03:42:28.890Z,0.50
2019-05-17T03:43:28.288Z,0.40
2019-05-17T03:44:28.256Z,0.30
2019-05-17T03:45:28.231Z,0.40
2019-05-17T03:46:28.894Z,0.40
2019-05-17T03:47:28.893Z,0.40
2019-05-17T03:48:28.210Z,0.50
2019-05-17T03:49:28.191Z,0.40
2019-05-17T03:50:28.177Z,0.40
2019-05-17T03:51:28.166Z,0.40
2019-05-17T03:52:28.154Z,0.30
2019-05-17T03:53:28.167Z,0.40
2019-05-17T03:54:28.146Z,0.60
2019-05-17T03:55:28.887Z,0.40
2019-05-17T03:56:28.113Z,0.30
2019-05-17T03:57:28.099Z,0.60
2019-05-17T03:58:28.093Z,0.20
2019-05-17T03:59:28.092Z,0.30
2019-05-17T04:00:28.890Z,0.40
2019-05-17T04:01:28.053Z,0.50
2019-05-17T04:02:28.045Z,0.40
2019-05-17T04:03:31.276Z,0.50
2019-05-17T04:04:28.048Z,0.40
2019-05-17T04:05:28.022Z,0.50
2019-05-17T04:06:28.897Z,0.40
2019-05-17T04:07:27.992Z,0.70
2019-05-17T04:08:27.994Z,0.40
2019-05-17T04:09:27.986Z,0.30
2019-05-17T04:10:27.957Z,0.60
2019-05-17T04:11:32.920Z,0.30
2019-05-17T04:12:27.937Z,0.20
2019-05-17T04:13:27.942Z,0.30
2019-05-17T04:14:27.927Z,0.30
2019-05-17T04:15:27.929Z,0.50
2019-05-17T04:16:27.895Z,0.50
2019-05-17T04:17:28.393Z,0.30
2019-05-17T04:18:28.392Z,0.40
2019-05-17T04:19:27.878Z,0.30
2019-05-17T04:20:27.852Z,0.30
2019-05-17T04:21:27.842Z,0.40
2019-05-17T04:22:28.393Z,0.40
2019-05-17T04:23:27.822Z,0.50
2019-05-17T04:24:27.833Z,0.50
2019-05-17T04:25:27.798Z,0.40
2019-05-17T04:26:27.789Z,0.30
2019-05-17T04:27:28.400Z,0.30
2019-05-17T04:28:27.773Z,0.30
2019-05-17T04:29:27.784Z,0.30
2019-05-17T04:30:27.746Z,0.40
2019-05-17T04:31:30.701Z,0.40
2019-05-17T04:32:27.721Z,0.30
2019-05-17T04:33:27.708Z,0.30
2019-05-17T04:34:27.739Z,0.30
2019-05-17T04:35:27.690Z,0.70
2019-05-17T04:36:27.681Z,0.40
2019-05-17T04:37:27.669Z,0.50
2019-05-17T04:38:27.666Z,0.30
2019-05-17T04:39:27.906Z,0.40
2019-05-17T04:40:27.652Z,0.40
2019-05-17T04:41:41.541Z,0.30
2019-05-17T04:42:27.615Z,0.30
2019-05-17T04:43:27.604Z,0.30
2019-05-17T04:44:27.614Z,0.40
2019-05-17T04:45:28.408Z,0.30
2019-05-17T04:46:28.395Z,0.40
2019-05-17T04:47:27.573Z,0.40
2019-05-17T04:48:27.554Z,0.40
2019-05-17T04:49:27.911Z,0.20
2019-05-17T04:50:27.542Z,0.40
2019-05-17T04:51:27.524Z,0.40
2019-05-17T04:52:27.521Z,0.30
2019-05-17T04:53:27.495Z,0.30
2019-05-17T04:54:27.499Z,0.30
2019-05-17T04:55:27.482Z,0.40
2019-05-17T04:56:27.484Z,0.30
2019-05-17T04:57:28.433Z,0.30
2019-05-17T04:58:27.439Z,0.40
2019-05-17T04:59:27.442Z,0.40
2019-05-17T05:00:28.417Z,0.40
2019-05-17T05:01:28.395Z,0.30
2019-05-17T05:02:27.898Z,0.30
2019-05-17T05:03:27.387Z,0.40
2019-05-17T05:04:27.381Z,0.40
2019-05-17T05:05:27.366Z,0.40
2019-05-17T05:06:27.355Z,0.40
2019-05-17T05:07:27.897Z,0.30
2019-05-17T05:08:27.904Z,0.30
2019-05-17T05:09:27.348Z,0.30
2019-05-17T05:10:27.324Z,0.40
2019-05-17T05:11:27.300Z,0.40
2019-05-17T05:12:27.290Z,0.40
2019-05-17T05:13:27.286Z,0.30
2019-05-17T05:14:27.410Z,0.50
2019-05-17T05:15:27.269Z,0.40
2019-05-17T05:16:27.249Z,0.40
2019-05-17T05:17:27.239Z,0.40
2019-05-17T05:18:27.227Z,0.40
2019-05-17T05:19:27.227Z,0.40
2019-05-17T05:20:27.900Z,0.40
2019-05-17T05:21:27.216Z,0.40
2019-05-17T05:22:27.190Z,0.30
2019-05-17T05:23:27.172Z,0.50
2019-05-17T05:24:27.185Z,0.30
2019-05-17T05:25:27.172Z,0.40
2019-05-17T05:26:27.898Z,0.40
2019-05-17T05:27:27.897Z,0.30
2019-05-17T05:28:27.116Z,0.40
2019-05-17T05:29:27.119Z,0.40
2019-05-17T05:30:27.103Z,0.30
2019-05-17T05:31:27.088Z,0.30
2019-05-17T05:32:27.070Z,0.30
2019-05-17T05:33:27.062Z,0.40
2019-05-17T05:34:27.060Z,0.30
2019-05-17T05:35:27.056Z,0.30
2019-05-17T05:36:27.900Z,0.40
2019-05-17T05:37:27.901Z,0.40
2019-05-17T05:38:27.007Z,0.30
2019-05-17T05:39:27.011Z,0.50
2019-05-17T05:40:26.987Z,0.40
2019-05-17T05:41:26.977Z,0.30
2019-05-17T05:42:27.899Z,0.30
2019-05-17T05:43:26.955Z,0.30
2019-05-17T05:44:26.956Z,0.40
2019-05-17T05:45:27.897Z,0.40
2019-05-17T05:46:26.921Z,0.30
2019-05-17T05:47:26.912Z,0.50
2019-05-17T05:48:26.905Z,0.50
2019-05-17T05:49:26.930Z,0.40
2019-05-17T05:50:26.879Z,0.40
2019-05-17T05:51:26.884Z,0.50
2019-05-17T05:52:27.402Z,0.50
2019-05-17T05:53:26.844Z,0.30
2019-05-17T05:54:26.855Z,0.50
2019-05-17T05:55:26.829Z,0.40
2019-05-17T05:56:26.832Z,0.30
2019-05-17T05:57:26.804Z,0.20
2019-05-17T05:58:26.797Z,0.30
2019-05-17T05:59:26.782Z,0.30
2019-05-17T06:00:26.923Z,0.40
2019-05-17T06:01:26.774Z,0.30
2019-05-17T06:02:26.753Z,0.30
2019-05-17T06:03:26.740Z,0.40
2019-05-17T06:04:26.733Z,0.40
2019-05-17T06:05:26.911Z,0.30
2019-05-17T06:06:26.713Z,0.30
2019-05-17T06:07:26.698Z,0.40
2019-05-17T06:08:26.689Z,0.40
2019-05-17T06:09:26.679Z,0.30
2019-05-17T06:10:26.688Z,0.30
2019-05-17T06:11:26.671Z,0.30
2019-05-17T06:12:28.078Z,0.50
2019-05-17T06:13:27.405Z,0.20
2019-05-17T06:14:26.624Z,0.30
2019-05-17T06:15:26.621Z,0.30
2019-05-17T06:16:27.414Z,0.20
2019-05-17T06:17:26.596Z,0.30
2019-05-17T06:18:26.582Z,0.40
2019-05-17T06:19:26.568Z,0.50
2019-05-17T06:20:26.913Z,0.50
2019-05-17T06:21:26.551Z,0.40
2019-05-17T06:22:26.541Z,0.40
2019-05-17T06:23:26.526Z,0.40
2019-05-17T06:24:26.515Z,0.20
2019-05-17T06:25:26.939Z,0.40
2019-05-17T06:26:26.510Z,0.60
2019-05-17T06:27:26.486Z,0.40
2019-05-17T06:28:26.480Z,0.40
2019-05-17T06:29:27.402Z,0.40
2019-05-17T06:30:26.913Z,0.30
2019-05-17T06:31:27.413Z,0.40
2019-05-17T06:32:26.447Z,0.40
2019-05-17T06:33:30.860Z,0.40
2019-05-17T06:34:26.412Z,0.30
2019-05-17T06:35:26.442Z,0.40
2019-05-17T06:36:26.393Z,0.30
2019-05-17T06:37:26.380Z,0.40
2019-05-17T06:38:26.370Z,0.30
2019-05-17T06:39:26.363Z,0.50
2019-05-17T06:40:26.352Z,0.30
2019-05-17T06:41:26.367Z,0.40
2019-05-17T06:42:38.264Z,0.30
2019-05-17T06:43:26.333Z,0.30
2019-05-17T06:44:26.306Z,0.50
2019-05-17T06:45:26.296Z,0.50
2019-05-17T06:46:26.311Z,0.30
2019-05-17T06:47:26.283Z,0.40
2019-05-17T06:48:26.263Z,0.40
2019-05-17T06:49:26.905Z,0.20
2019-05-17T06:50:26.241Z,0.20
2019-05-17T06:51:26.257Z,0.30
2019-05-17T06:52:26.223Z,0.30
2019-05-17T06:53:26.210Z,0.30
2019-05-17T06:54:26.207Z,0.40
2019-05-17T06:55:26.190Z,0.50
2019-05-17T06:56:26.187Z,0.30
2019-05-17T06:57:26.181Z,0.40
2019-05-17T06:58:26.156Z,0.40
2019-05-17T06:59:26.146Z,0.40
2019-05-17T07:00:26.141Z,0.40
2019-05-17T07:01:26.133Z,0.30
2019-05-17T07:02:26.131Z,0.50
2019-05-17T07:03:26.108Z,0.50
2019-05-17T07:04:26.112Z,0.50
2019-05-17T07:05:26.084Z,0.70
2019-05-17T07:06:26.114Z,1.00
2019-05-17T07:07:26.917Z,1.40
2019-05-17T07:08:26.907Z,1.70
2019-05-17T07:09:26.059Z,1.80
2019-05-17T07:10:26.032Z,2.30
2019-05-17T07:11:26.027Z,2.30
2019-05-17T07:12:26.018Z,2.20
2019-05-17T07:13:25.997Z,2.50
2019-05-17T07:14:25.992Z,2.50
2019-05-17T07:15:26.008Z,2.20
2019-05-17T07:16:26.027Z,2.70
2019-05-17T07:17:25.980Z,2.70
2019-05-17T07:18:25.945Z,2.30
2019-05-17T07:19:25.934Z,2.40
2019-05-17T07:20:25.932Z,2.40
2019-05-17T07:21:26.440Z,2.10
2019-05-17T07:22:26.408Z,2.50
2019-05-17T07:23:25.895Z,2.60
2019-05-17T07:24:25.885Z,2.80
2019-05-17T07:25:25.872Z,2.90
2019-05-17T07:26:25.918Z,2.70
2019-05-17T07:27:37.940Z,2.60
2019-05-17T07:28:25.837Z,2.90
2019-05-17T07:29:25.832Z,2.40
2019-05-17T07:30:25.866Z,2.20
2019-05-17T07:31:25.824Z,2.20
2019-05-17T07:32:25.797Z,2.50
2019-05-17T07:33:25.787Z,2.60
2019-05-17T07:34:26.407Z,2.50
2019-05-17T07:35:26.412Z,2.70
2019-05-17T07:36:25.769Z,2.40
2019-05-17T07:37:25.941Z,2.60
2019-05-17T07:38:25.761Z,2.70
2019-05-17T07:39:25.738Z,2.20
2019-05-17T07:40:25.712Z,2.40
2019-05-17T07:41:26.420Z,2.40
2019-05-17T07:42:25.708Z,2.30
2019-05-17T07:43:25.684Z,2.20
2019-05-17T07:44:26.415Z,2.10
2019-05-17T07:45:25.664Z,2.40
2019-05-17T07:46:25.666Z,1.50
2019-05-17T07:47:25.654Z,1.80
2019-05-17T07:48:25.626Z,2.10
2019-05-17T07:49:26.411Z,2.60
2019-05-17T07:50:26.412Z,2.50
2019-05-17T07:51:25.625Z,2.30
2019-05-17T07:52:25.639Z,2.70
2019-05-17T07:53:25.580Z,1.90
2019-05-17T07:54:25.563Z,2.50
2019-05-17T07:55:25.561Z,2.20
2019-05-17T07:56:25.560Z,2.60
2019-05-17T07:57:25.542Z,2.50
2019-05-17T07:58:26.409Z,3.10
2019-05-17T07:59:26.412Z,3.00
2019-05-17T08:00:26.415Z,3.00
2019-05-17T08:01:25.501Z,2.50
2019-05-17T08:02:25.503Z,2.60
2019-05-17T08:03:25.466Z,2.90
2019-05-17T08:04:25.455Z,2.20
2019-05-17T08:05:25.449Z,2.30
2019-05-17T08:06:25.447Z,2.30
2019-05-17T08:07:25.940Z,2.60
2019-05-17T08:08:25.457Z,2.10
2019-05-17T08:09:25.403Z,1.90
2019-05-17T08:10:25.401Z,2.30
2019-05-17T08:11:25.380Z,2.70
2019-05-17T08:12:25.384Z,1.80
2019-05-17T08:13:30.019Z,2.20
2019-05-17T08:14:30.016Z,2.10
2019-05-17T08:15:25.345Z,2.00
2019-05-17T08:16:25.910Z,2.00
2019-05-17T08:17:25.315Z,2.10
2019-05-17T08:18:25.437Z,1.90
2019-05-17T08:19:25.295Z,1.90
2019-05-17T08:20:25.293Z,1.80
2019-05-17T08:21:25.285Z,1.90
2019-05-17T08:22:25.262Z,1.60
2019-05-17T08:23:25.303Z,2.20
2019-05-17T08:24:25.251Z,1.90
2019-05-17T08:25:25.240Z,1.70
2019-05-17T08:26:25.221Z,1.70
2019-05-17T08:27:25.211Z,1.50
2019-05-17T08:28:27.193Z,1.90
2019-05-17T08:29:25.188Z,1.80
2019-05-17T08:30:25.211Z,2.00
2019-05-17T08:31:25.931Z,1.70
2019-05-17T08:32:25.162Z,1.60
2019-05-17T08:33:25.168Z,1.70
2019-05-17T08:34:25.135Z,1.90
2019-05-17T08:35:25.931Z,1.80
2019-05-17T08:36:25.940Z,1.90
2019-05-17T08:37:25.106Z,1.50
2019-05-17T08:38:25.119Z,1.80
2019-05-17T08:39:25.079Z,1.70
2019-05-17T08:40:25.920Z,1.40
2019-05-17T08:41:25.067Z,1.40
2019-05-17T08:42:25.066Z,1.50
2019-05-17T08:43:38.300Z,1.80
2019-05-17T08:44:25.029Z,1.30
2019-05-17T08:45:25.038Z,1.90
2019-05-17T08:46:25.011Z,1.60
2019-05-17T08:47:25.024Z,1.50
2019-05-17T08:48:25.011Z,1.30
2019-05-17T08:49:24.983Z,1.50
2019-05-17T08:50:25.000Z,1.60
2019-05-17T08:51:24.983Z,1.50
2019-05-17T08:52:24.954Z,1.60
2019-05-17T08:53:24.959Z,1.60
2019-05-17T08:54:24.927Z,1.50
2019-05-17T08:55:24.919Z,1.50
2019-05-17T08:56:24.903Z,1.50
2019-05-17T08:57:24.895Z,1.90
2019-05-17T08:58:24.935Z,1.50
2019-05-17T08:59:24.877Z,1.50
2019-05-17T09:00:24.861Z,1.40
2019-05-17T09:01:24.850Z,1.30
2019-05-17T09:02:24.840Z,1.50
2019-05-17T09:03:24.847Z,1.20
2019-05-17T09:04:24.820Z,1.50
2019-05-17T09:05:24.812Z,1.10
2019-05-17T09:06:24.817Z,1.50
2019-05-17T09:07:24.787Z,1.20
2019-05-17T09:08:24.807Z,1.30
2019-05-17T09:09:24.775Z,1.00
2019-05-17T09:10:25.416Z,1.20
2019-05-17T09:11:24.741Z,1.30
2019-05-17T09:12:24.731Z,1.30
2019-05-17T09:13:24.744Z,1.10
2019-05-17T09:14:24.721Z,1.00
2019-05-17T09:15:25.415Z,1.10
2019-05-17T09:16:24.706Z,1.30
2019-05-17T09:17:24.680Z,1.10
2019-05-17T09:18:25.419Z,1.30
2019-05-17T09:19:24.943Z,1.10
2019-05-17T09:20:25.492Z,1.30
2019-05-17T09:21:24.669Z,1.30
2019-05-17T09:22:24.625Z,1.00
2019-05-17T09:23:24.637Z,0.90
2019-05-17T09:24:24.621Z,1.00
2019-05-17T09:25:24.597Z,1.00
2019-05-17T09:26:25.413Z,0.90
2019-05-17T09:27:24.583Z,0.90
2019-05-17T09:28:24.600Z,1.20
2019-05-17T09:29:24.585Z,1.00
2019-05-17T09:30:25.709Z,0.90
2019-05-17T09:31:25.431Z,0.70
2019-05-17T09:32:24.536Z,1.00
2019-05-17T09:33:24.516Z,0.90
2019-05-17T09:34:24.578Z,1.00
2019-05-17T09:35:24.483Z,1.20
2019-05-17T09:36:24.521Z,1.00
2019-05-17T09:37:24.465Z,0.90
2019-05-17T09:38:25.415Z,1.00
2019-05-17T09:39:24.453Z,1.20
2019-05-17T09:40:24.428Z,1.00
2019-05-17T09:41:24.443Z,1.00
2019-05-17T09:42:24.917Z,0.80
2019-05-17T09:43:24.398Z,1.20
2019-05-17T09:44:24.429Z,1.40
2019-05-17T09:45:24.387Z,1.00
2019-05-17T09:46:24.388Z,1.20
2019-05-17T09:47:24.935Z,1.20
2019-05-17T09:48:24.353Z,1.30
2019-05-17T09:49:24.917Z,1.10
2019-05-17T09:50:24.427Z,1.00
2019-05-17T09:51:24.336Z,0.90
2019-05-17T09:52:24.919Z,1.10
2019-05-17T09:53:24.298Z,1.10
2019-05-17T09:54:39.047Z,1.00
2019-05-17T09:55:24.296Z,1.00
2019-05-17T09:56:24.918Z,0.70
2019-05-17T09:57:24.277Z,1.20
2019-05-17T09:58:24.240Z,1.30
2019-05-17T09:59:24.930Z,1.00
2019-05-17T10:00:24.227Z,1.40
2019-05-17T10:01:24.916Z,1.10
2019-05-17T10:02:24.202Z,1.10
2019-05-17T10:03:24.931Z,1.10
2019-05-17T10:04:24.192Z,1.20
2019-05-17T10:05:24.176Z,1.10
2019-05-17T10:06:24.152Z,1.20
2019-05-17T10:07:24.918Z,1.00
2019-05-17T10:08:24.141Z,0.70
2019-05-17T10:09:24.135Z,1.10
2019-05-17T10:10:24.429Z,0.80
2019-05-17T10:11:24.100Z,0.90
2019-05-17T10:12:24.921Z,0.90
2019-05-17T10:13:24.933Z,0.80
2019-05-17T10:14:27.614Z,0.90
2019-05-17T10:15:24.077Z,0.90
2019-05-17T10:16:24.047Z,0.80
2019-05-17T10:17:24.077Z,0.60
2019-05-17T10:18:24.024Z,0.60
2019-05-17T10:19:24.037Z,0.80
2019-05-17T10:20:24.439Z,1.00
2019-05-17T10:21:25.839Z,0.80
2019-05-17T10:22:23.988Z,0.80
2019-05-17T10:23:23.975Z,0.70
2019-05-17T10:24:33.825Z,1.10
2019-05-17T10:25:23.961Z,0.80
2019-05-17T10:26:23.942Z,0.80
2019-05-17T10:27:23.945Z,0.90
2019-05-17T10:28:23.921Z,0.90
2019-05-17T10:29:23.917Z,0.60
2019-05-17T10:30:23.914Z,0.70
2019-05-17T10:31:24.424Z,1.00
2019-05-17T10:32:24.451Z,0.60
2019-05-17T10:33:23.873Z,0.70
2019-05-17T10:34:23.870Z,0.70
2019-05-17T10:35:23.859Z,0.80
2019-05-17T10:36:23.846Z,0.70
2019-05-17T10:37:23.822Z,0.80
2019-05-17T10:38:24.422Z,0.70
2019-05-17T10:39:23.803Z,0.80
2019-05-17T10:40:23.792Z,0.60
2019-05-17T10:41:23.941Z,0.80
2019-05-17T10:42:23.778Z,0.60
2019-05-17T10:43:23.760Z,0.50
2019-05-17T10:44:23.784Z,0.50
2019-05-17T10:45:23.740Z,0.80
2019-05-17T10:46:23.752Z,0.50
2019-05-17T10:47:24.427Z,0.80
2019-05-17T10:48:23.722Z,0.70
2019-05-17T10:49:23.719Z,0.50
2019-05-17T10:50:24.422Z,0.70
2019-05-17T10:51:23.680Z,0.80
2019-05-17T10:52:23.680Z,0.60
2019-05-17T10:53:23.668Z,0.50
2019-05-17T10:54:23.648Z,1.00
2019-05-17T10:55:23.631Z,0.70
2019-05-17T10:56:23.949Z,0.70
2019-05-17T10:57:24.421Z,0.60
2019-05-17T10:58:24.420Z,0.70
2019-05-17T10:59:23.587Z,1.00
2019-05-17T11:00:23.619Z,0.70
2019-05-17T11:01:23.574Z,0.70
2019-05-17T11:02:23.565Z,0.80
2019-05-17T11:03:24.422Z,0.90
2019-05-17T11:04:24.426Z,0.50
2019-05-17T11:05:24.434Z,2.30
2019-05-17T11:06:23.945Z,0.60
2019-05-17T11:07:23.501Z,0.70
2019-05-17T11:08:23.508Z,0.80
2019-05-17T11:09:23.490Z,0.70
2019-05-17T11:10:23.485Z,0.80
2019-05-17T11:11:23.480Z,0.60
2019-05-17T11:12:23.456Z,0.90
2019-05-17T11:13:23.440Z,0.80
2019-05-17T11:14:23.429Z,0.70
2019-05-17T11:15:23.434Z,0.70
2019-05-17T11:16:23.456Z,0.80
2019-05-17T11:17:23.395Z,1.10
2019-05-17T11:18:23.401Z,0.60
2019-05-17T11:19:23.923Z,0.90
2019-05-17T11:20:23.393Z,0.60
2019-05-17T11:21:23.436Z,0.70
2019-05-17T11:22:23.344Z,0.50
2019-05-17T11:23:23.333Z,0.50
2019-05-17T11:24:23.928Z,0.70
2019-05-17T11:25:23.339Z,0.70
2019-05-17T11:26:23.324Z,0.80
2019-05-17T11:27:23.291Z,0.40
2019-05-17T11:28:23.286Z,0.60
2019-05-17T11:29:23.273Z,0.70
2019-05-17T11:30:23.275Z,0.60
2019-05-17T11:31:23.250Z,0.60
2019-05-17T11:32:23.268Z,0.60
2019-05-17T11:33:23.232Z,0.70
2019-05-17T11:34:25.484Z,0.70
2019-05-17T11:35:24.803Z,1.00
2019-05-17T11:36:23.198Z,0.70
2019-05-17T11:37:23.197Z,0.70
2019-05-17T11:38:23.175Z,0.60
2019-05-17T11:39:23.928Z,0.70
2019-05-17T11:40:23.169Z,0.80
2019-05-17T11:41:23.143Z,0.70
2019-05-17T11:42:23.140Z,0.70
2019-05-17T11:43:23.123Z,0.80
2019-05-17T11:44:23.113Z,0.90
2019-05-17T11:45:28.106Z,0.90
2019-05-17T11:46:35.314Z,0.80
2019-05-17T11:47:23.087Z,0.80
2019-05-17T11:48:23.072Z,0.70
2019-05-17T11:49:23.074Z,0.40
2019-05-17T11:50:23.047Z,0.80
2019-05-17T11:51:23.035Z,0.70
2019-05-17T11:52:23.450Z,0.70
2019-05-17T11:53:23.016Z,0.70
2019-05-17T11:54:23.010Z,0.70
2019-05-17T11:55:22.997Z,0.70
2019-05-17T11:56:22.986Z,0.70
2019-05-17T11:57:23.467Z,0.60
2019-05-17T11:58:22.974Z,0.80
2019-05-17T11:59:22.949Z,1.50
2019-05-17T12:00:23.945Z,1.00
2019-05-17T12:01:22.933Z,0.90
2019-05-17T12:02:22.941Z,0.60
2019-05-17T12:03:23.437Z,0.80
2019-05-17T12:04:23.436Z,0.70
2019-05-17T12:05:22.899Z,0.80
2019-05-17T12:06:22.876Z,0.60
2019-05-17T12:07:22.886Z,0.60
2019-05-17T12:08:22.855Z,0.70
2019-05-17T12:09:36.407Z,0.80
2019-05-17T12:10:22.919Z,0.50
2019-05-17T12:11:22.845Z,0.80
2019-05-17T12:12:22.950Z,0.80
2019-05-17T12:13:22.808Z,0.70
2019-05-17T12:14:22.789Z,1.00
2019-05-17T12:15:23.460Z,0.70
2019-05-17T12:16:22.769Z,0.70
2019-05-17T12:17:22.940Z,0.70
2019-05-17T12:18:22.751Z,1.00
2019-05-17T12:19:22.738Z,0.80
2019-05-17T12:20:23.440Z,0.60
2019-05-17T12:21:22.722Z,0.60
2019-05-17T12:22:25.943Z,0.70
2019-05-17T12:23:23.456Z,0.60
2019-05-17T12:24:23.445Z,0.70
2019-05-17T12:25:22.700Z,0.80
2019-05-17T12:26:22.683Z,0.90
2019-05-17T12:27:22.665Z,1.10
2019-05-17T12:28:22.657Z,0.80
2019-05-17T12:29:22.627Z,1.10
2019-05-17T12:30:23.431Z,0.90
2019-05-17T12:31:23.446Z,0.90
2019-05-17T12:32:22.604Z,1.00
2019-05-17T12:33:22.647Z,1.00
2019-05-17T12:34:22.574Z,0.90
2019-05-17T12:35:22.643Z,0.90
2019-05-17T12:36:22.613Z,1.00
2019-05-17T12:37:23.449Z,0.80
2019-05-17T12:38:22.549Z,0.80
2019-05-17T12:39:22.525Z,0.90
2019-05-17T12:40:22.520Z,1.20
2019-05-17T12:41:22.499Z,0.90
2019-05-17T12:42:22.508Z,1.00
2019-05-17T12:43:22.962Z,1.10
2019-05-17T12:44:22.582Z,0.90
2019-05-17T12:45:22.460Z,1.30
2019-05-17T12:46:22.449Z,1.40
2019-05-17T12:47:22.465Z,1.20
2019-05-17T12:48:22.478Z,0.90
2019-05-17T12:49:22.943Z,0.90
2019-05-17T12:50:22.404Z,0.90
2019-05-17T12:51:22.392Z,0.90
2019-05-17T12:52:22.391Z,0.90
2019-05-17T12:53:22.456Z,1.00
2019-05-17T12:54:22.372Z,0.90
2019-05-17T12:55:22.350Z,0.80
2019-05-17T12:56:22.357Z,0.80
2019-05-17T12:57:22.938Z,0.90
2019-05-17T12:58:22.348Z,0.80
2019-05-17T12:59:22.950Z,0.90
2019-05-17T13:00:22.936Z,0.80
2019-05-17T13:01:22.315Z,0.90
2019-05-17T13:02:22.279Z,0.70
2019-05-17T13:03:22.284Z,0.70
2019-05-17T13:04:22.299Z,0.80
2019-05-17T13:05:22.271Z,0.90
2019-05-17T13:06:22.247Z,0.80
2019-05-17T13:07:22.219Z,0.70
2019-05-17T13:08:22.222Z,0.90
2019-05-17T13:09:22.213Z,0.70
2019-05-17T13:10:22.978Z,0.60
2019-05-17T13:11:22.938Z,0.90
2019-05-17T13:12:23.021Z,1.00
2019-05-17T13:13:22.193Z,0.70
2019-05-17T13:14:22.954Z,0.80
2019-05-17T13:15:22.150Z,0.90
2019-05-17T13:16:22.955Z,0.70
2019-05-17T13:17:22.154Z,1.10
2019-05-17T13:18:22.116Z,0.80